createdAt,value
2022-10-12T00:00:59.386Z,101877.59
2022-10-12T00:03:25.763Z,101885.97
2022-10-12T00:06:08.590Z,101883.53
2022-10-12T00:08:36.509Z,101880.28
2022-10-12T00:11:04.413Z,101877.72
2022-10-12T00:13:31.067Z,101874.28
2022-10-12T00:16:01.497Z,101870.88
2022-10-12T00:18:27.838Z,101878.34
2022-10-12T00:21:02.150Z,101873.22
2022-10-12T00:23:29.708Z,101875.28
2022-10-12T00:25:56.085Z,101859.88
2022-10-12T00:28:22.562Z,101866.34
2022-10-12T00:30:49.005Z,101868.41
2022-10-12T00:33:15.402Z,101872.16
2022-10-12T00:35:41.766Z,101867.69
2022-10-12T00:38:08.116Z,101866.69
2022-10-12T00:40:34.568Z,101863.28
2022-10-12T00:43:01.096Z,101873.69
2022-10-12T00:45:27.709Z,101870.41
2022-10-12T00:47:56.841Z,101877.22
2022-10-12T00:50:26.544Z,101871.22
2022-10-12T00:52:56.191Z,101876.31
2022-10-12T00:55:25.682Z,101874.91
2022-10-12T00:57:54.624Z,101874.22
2022-10-12T01:00:22.223Z,101866.19
2022-10-12T01:02:51.634Z,101871.97
2022-10-12T01:05:18.752Z,101873.16
2022-10-12T01:07:45.326Z,101874.31
2022-10-12T01:10:12.262Z,101873.31
2022-10-12T01:12:42.512Z,101874.84
2022-10-12T01:15:10.454Z,101873.16
2022-10-12T01:17:39.792Z,101875.72
2022-10-12T01:20:43.808Z,101875.19
2022-10-12T01:23:28.267Z,101873.63
2022-10-12T01:26:16.621Z,101871.22
2022-10-12T01:28:46.078Z,101871.53
2022-10-12T01:31:30.055Z,101874.59
2022-10-12T01:34:08.133Z,101870.44
2022-10-12T01:36:45.565Z,101877.25
2022-10-12T01:39:25.208Z,101865.63
2022-10-12T01:41:56.552Z,101857.75
2022-10-12T01:44:25.421Z,101858.91
2022-10-12T01:46:54.510Z,101859.19
2022-10-12T01:49:26.593Z,101857.66
2022-10-12T01:52:16.977Z,101858.66
2022-10-12T01:55:05.041Z,101858.50
2022-10-12T01:57:57.461Z,101857.66
2022-10-12T02:00:24.014Z,101852.19
2022-10-12T02:03:14.484Z,101853.19
2022-10-12T02:06:02.266Z,101848.22
2022-10-12T02:08:37.797Z,101847.38
2022-10-12T02:11:13.090Z,101847.50
2022-10-12T02:13:43.993Z,101847.50
2022-10-12T02:16:18.997Z,101845.66
2022-10-12T02:18:49.855Z,101840.19
2022-10-12T02:21:21.296Z,101841.91
2022-10-12T02:23:50.077Z,101835.41
2022-10-12T02:26:17.950Z,101832.66
2022-10-12T02:28:45.302Z,101831.66
2022-10-12T02:31:18.597Z,101825.19
2022-10-12T02:34:18.220Z,101827.59
2022-10-12T02:36:48.891Z,101828.28
2022-10-12T02:39:21.021Z,101824.25
2022-10-12T02:41:51.214Z,101825.09
2022-10-12T02:44:26.148Z,101825.66
2022-10-12T02:46:54.939Z,101817.97
2022-10-12T02:49:27.004Z,101806.91
2022-10-12T02:51:55.510Z,101815.50
2022-10-12T02:54:22.037Z,101811.72
2022-10-12T02:56:48.408Z,101806.97
2022-10-12T02:59:16.483Z,101807.63
2022-10-12T03:01:43.703Z,101807.63
2022-10-12T03:04:10.318Z,101806.63
2022-10-12T03:06:36.907Z,101805.28
2022-10-12T03:09:05.264Z,101810.44
2022-10-12T03:11:32.136Z,101807.00
2022-10-12T03:13:58.532Z,101815.91
2022-10-12T03:16:25.051Z,101808.56
2022-10-12T03:18:51.928Z,101801.75
2022-10-12T03:21:18.458Z,101803.28
2022-10-12T03:23:45.359Z,101798.53
2022-10-12T03:26:11.979Z,101792.88
2022-10-12T03:28:38.394Z,101799.22
2022-10-12T03:31:04.963Z,101790.69
2022-10-12T03:33:31.348Z,101794.94
2022-10-12T03:35:57.809Z,101794.66
2022-10-12T03:38:24.210Z,101795.19
2022-10-12T03:40:50.602Z,101798.59
2022-10-12T03:43:17.323Z,101794.84
2022-10-12T03:45:43.698Z,101797.41
2022-10-12T03:48:10.094Z,101795.22
2022-10-12T03:50:36.771Z,101789.41
2022-10-12T03:53:05.247Z,101786.34
2022-10-12T03:55:31.931Z,101784.28
2022-10-12T03:57:58.447Z,101789.41
2022-10-12T04:00:25.609Z,101783.81
2022-10-12T04:02:51.978Z,101787.78
2022-10-12T04:05:18.341Z,101792.91
2022-10-12T04:07:44.802Z,101797.19
2022-10-12T04:10:11.329Z,101786.09
2022-10-12T04:12:37.724Z,101787.78
2022-10-12T04:15:04.788Z,101786.75
2022-10-12T04:17:31.261Z,101787.47
2022-10-12T04:19:57.724Z,101785.41
2022-10-12T04:22:24.791Z,101790.88
2022-10-12T04:24:51.492Z,101781.81
2022-10-12T04:27:17.924Z,101785.41
2022-10-12T04:29:44.357Z,101783.53
2022-10-12T04:32:12.659Z,101776.19
2022-10-12T04:34:39.368Z,101780.59
2022-10-12T04:37:05.893Z,101783.03
2022-10-12T04:39:32.327Z,101786.44
2022-10-12T04:41:58.837Z,101792.63
2022-10-12T04:44:29.732Z,101796.38
2022-10-12T04:46:58.593Z,101800.31
2022-10-12T04:49:24.974Z,101779.44
2022-10-12T04:51:51.348Z,101784.72
2022-10-12T04:54:17.790Z,101786.44
2022-10-12T04:56:47.684Z,101777.22
2022-10-12T04:59:14.689Z,101783.56
2022-10-12T05:01:41.169Z,101779.44
2022-10-12T05:04:07.654Z,101780.59
2022-10-12T05:06:34.060Z,101772.41
2022-10-12T05:09:00.421Z,101775.13
2022-10-12T05:11:26.756Z,101771.22
2022-10-12T05:13:53.175Z,101773.09
2022-10-12T05:16:19.609Z,101764.91
2022-10-12T05:18:46.000Z,101761.13
2022-10-12T05:21:12.463Z,101766.91
2022-10-12T05:23:38.897Z,101768.84
2022-10-12T05:26:05.465Z,101774.13
2022-10-12T05:28:33.922Z,101772.41
2022-10-12T05:31:02.250Z,101771.56
2022-10-12T05:33:28.650Z,101769.66
2022-10-12T05:35:56.657Z,101784.72
2022-10-12T05:38:23.525Z,101766.91
2022-10-12T05:40:49.899Z,101777.03
2022-10-12T05:43:16.280Z,101785.25
2022-10-12T05:45:43.141Z,101779.25
2022-10-12T05:48:09.560Z,101783.91
2022-10-12T05:50:35.932Z,101785.44
2022-10-12T05:53:02.389Z,101776.38
2022-10-12T05:55:28.787Z,101773.13
2022-10-12T05:57:55.203Z,101774.50
2022-10-12T06:00:22.023Z,101775.69
2022-10-12T06:02:48.451Z,101770.94
2022-10-12T06:05:15.217Z,101775.34
2022-10-12T06:07:41.584Z,101773.47
2022-10-12T06:10:08.868Z,101771.75
2022-10-12T06:12:35.348Z,101781.03
2022-10-12T06:15:01.993Z,101771.09
2022-10-12T06:17:28.376Z,101765.63
2022-10-12T06:19:54.781Z,101766.66
2022-10-12T06:22:21.404Z,101776.94
2022-10-12T06:24:47.793Z,101776.41
2022-10-12T06:27:14.249Z,101776.22
2022-10-12T06:29:40.613Z,101788.19
2022-10-12T06:32:07.272Z,101777.25
2022-10-12T06:34:33.639Z,101781.03
2022-10-12T06:37:01.978Z,101779.97
2022-10-12T06:39:28.891Z,101786.81
2022-10-12T06:41:55.274Z,101785.47
2022-10-12T06:44:22.482Z,101795.78
2022-10-12T06:46:49.898Z,101793.34
2022-10-12T06:49:17.785Z,101803.66
2022-10-12T06:51:44.319Z,101801.25
2022-10-12T06:54:10.839Z,101814.44
2022-10-12T06:56:39.469Z,101811.53
2022-10-12T06:59:06.231Z,101817.84
2022-10-12T07:01:32.905Z,101808.63
2022-10-12T07:04:00.817Z,101815.81
2022-10-12T07:06:27.526Z,101816.69
2022-10-12T07:08:54.704Z,101816.84
2022-10-12T07:11:21.503Z,101815.47
2022-10-12T07:13:48.026Z,101809.47
2022-10-12T07:16:14.429Z,101809.84
2022-10-12T07:18:40.833Z,101810.34
2022-10-12T07:21:07.305Z,101816.00
2022-10-12T07:23:34.903Z,101809.16
2022-10-12T07:26:01.418Z,101811.53
2022-10-12T07:28:28.123Z,101806.06
2022-10-12T07:30:54.566Z,101809.97
2022-10-12T07:33:20.973Z,101808.97
2022-10-12T07:36:12.796Z,101808.81
2022-10-12T07:38:43.945Z,101808.97
2022-10-12T07:41:11.403Z,101807.75
2022-10-12T07:43:39.006Z,101805.34
2022-10-12T07:46:05.538Z,101800.03
2022-10-12T07:48:32.208Z,101803.97
2022-10-12T07:51:06.007Z,101800.53
2022-10-12T07:53:33.827Z,101796.06
2022-10-12T07:56:05.529Z,101798.13
2022-10-12T07:58:32.320Z,101810.78
2022-10-12T08:01:08.821Z,101803.09
2022-10-12T08:03:35.916Z,101800.16
2022-10-12T08:06:13.296Z,101800.50
2022-10-12T08:08:40.245Z,101806.00
2022-10-12T08:11:07.533Z,101806.50
2022-10-12T08:13:34.784Z,101805.63
2022-10-12T08:16:03.031Z,101804.78
2022-10-12T08:18:29.706Z,101804.25
2022-10-12T08:20:56.434Z,101807.50
2022-10-12T08:23:22.952Z,101804.59
2022-10-12T08:25:56.925Z,101799.78
2022-10-12T08:28:24.497Z,101799.28
2022-10-12T08:30:51.605Z,101801.19
2022-10-12T08:33:18.803Z,101796.69
2022-10-12T08:35:47.666Z,101794.28
2022-10-12T08:38:14.638Z,101782.59
2022-10-12T08:40:53.647Z,101783.94
2022-10-12T08:43:42.828Z,101770.19
2022-10-12T08:46:09.394Z,101770.50
2022-10-12T08:48:42.199Z,101780.53
2022-10-12T08:51:14.749Z,101766.59
2022-10-12T08:53:57.091Z,101763.09
2022-10-12T08:56:24.109Z,101760.34
2022-10-12T08:58:52.694Z,101763.84
2022-10-12T09:01:28.367Z,101761.00
2022-10-12T09:04:10.287Z,101758.69
2022-10-12T09:07:04.528Z,101751.94
2022-10-12T09:09:49.253Z,101755.38
2022-10-12T09:12:38.160Z,101754.38
2022-10-12T09:15:12.092Z,101755.34
2022-10-12T09:17:59.635Z,101747.19
2022-10-12T09:20:35.213Z,101749.47
2022-10-12T09:23:30.261Z,101748.94
2022-10-12T09:26:03.558Z,101740.22
2022-10-12T09:28:41.720Z,101729.25
2022-10-12T09:31:34.034Z,101732.25
2022-10-12T09:34:04.840Z,101719.72
2022-10-12T09:36:36.429Z,101726.25
2022-10-12T09:39:06.213Z,101716.47
2022-10-12T09:41:42.569Z,101720.28
2022-10-12T09:44:16.841Z,101716.16
2022-10-12T09:46:49.497Z,101716.72
2022-10-12T09:49:15.977Z,101712.66
2022-10-12T09:51:42.584Z,101712.34
2022-10-12T09:54:18.520Z,101717.19
2022-10-12T09:56:52.319Z,101712.22
2022-10-12T09:59:30.354Z,101716.63
2022-10-12T10:02:17.856Z,101715.03
2022-10-12T10:04:46.299Z,101715.53
2022-10-12T10:07:29.772Z,101718.03
2022-10-12T10:10:17.913Z,101707.88
2022-10-12T10:12:47.552Z,101709.53
2022-10-12T10:15:24.411Z,101704.16
2022-10-12T10:17:54.416Z,101708.47
2022-10-12T10:20:28.570Z,101703.00
2022-10-12T10:22:55.375Z,101712.00
2022-10-12T10:25:24.268Z,101703.50
2022-10-12T10:28:10.631Z,101710.75
2022-10-12T10:30:40.844Z,101709.22
2022-10-12T10:33:19.133Z,101706.22
2022-10-12T10:35:57.007Z,101714.97
2022-10-12T10:38:23.808Z,101706.47
2022-10-12T10:40:52.842Z,101703.94
2022-10-12T10:43:25.041Z,101703.94
2022-10-12T10:45:56.882Z,101703.91
2022-10-12T10:48:27.813Z,101694.66
2022-10-12T10:51:03.137Z,101690.56
2022-10-12T10:53:50.377Z,101685.31
2022-10-12T10:56:25.775Z,101688.91
2022-10-12T10:58:59.864Z,101685.03
2022-10-12T11:02:02.273Z,101682.66
2022-10-12T11:04:41.389Z,101679.25
2022-10-12T11:07:33.305Z,101679.25
2022-10-12T11:10:04.277Z,101673.00
2022-10-12T11:12:41.192Z,101666.53
2022-10-12T11:15:12.772Z,101662.78
2022-10-12T11:17:46.069Z,101659.50
2022-10-12T11:20:28.262Z,101660.53
2022-10-12T11:23:01.547Z,101649.69
2022-10-12T11:25:45.656Z,101653.25
2022-10-12T11:28:16.311Z,101648.59
2022-10-12T11:30:51.854Z,101643.22
2022-10-12T11:33:23.839Z,101642.28
2022-10-12T11:35:52.874Z,101631.16
2022-10-12T11:38:29.821Z,101618.69
2022-10-12T11:44:07.228Z,101606.63
2022-10-12T11:46:38.285Z,101608.25
2022-10-12T11:49:12.193Z,101601.84
2022-10-12T11:51:38.616Z,101598.31
2022-10-12T11:54:04.983Z,101598.50
2022-10-12T11:56:50.956Z,101596.13
2022-10-12T11:59:29.369Z,101594.13
2022-10-12T12:02:03.366Z,101588.53
2022-10-12T12:04:43.657Z,101577.84
2022-10-12T12:07:22.662Z,101585.13
2022-10-12T12:09:51.034Z,101578.50
2022-10-12T12:12:25.462Z,101582.72
2022-10-12T12:14:54.678Z,101579.56
2022-10-12T12:17:21.817Z,101574.38
2022-10-12T12:19:59.440Z,101564.97
2022-10-12T12:22:33.469Z,101566.13
2022-10-12T12:25:04.770Z,101568.88
2022-10-12T12:27:41.632Z,101563.72
2022-10-12T12:30:30.728Z,101569.91
2022-10-12T12:33:04.931Z,101548.72
2022-10-12T12:35:50.218Z,101558.06
2022-10-12T12:38:23.111Z,101553.66
2022-10-12T12:41:19.774Z,101543.16
2022-10-12T12:43:54.052Z,101545.34
2022-10-12T12:46:21.325Z,101550.53
2022-10-12T12:48:47.768Z,101546.44
2022-10-12T12:51:16.069Z,101546.72
2022-10-12T12:53:50.525Z,101552.13
2022-10-12T12:56:46.248Z,101546.38
2022-10-12T12:59:37.158Z,101548.56
2022-10-12T13:02:34.644Z,101554.53
2022-10-12T13:05:26.102Z,101550.47
2022-10-12T13:08:14.009Z,101546.84
2022-10-12T13:10:55.619Z,101539.22
2022-10-12T13:13:21.926Z,101536.41
2022-10-12T13:15:55.058Z,101531.47
2022-10-12T13:18:47.063Z,101532.91
2022-10-12T13:21:24.442Z,101526.13
2022-10-12T13:23:57.538Z,101519.09
2022-10-12T13:26:27.473Z,101520.97
2022-10-12T13:28:55.597Z,101514.91
2022-10-12T13:31:36.877Z,101510.00
2022-10-12T13:34:12.749Z,101512.78
2022-10-12T13:36:51.943Z,101508.91
2022-10-12T13:39:21.103Z,101505.59
2022-10-12T13:41:52.007Z,101509.50
2022-10-12T13:44:36.530Z,101494.59
2022-10-12T13:47:24.650Z,101491.63
2022-10-12T13:49:51.615Z,101486.25
2022-10-12T13:52:27.194Z,101483.81
2022-10-12T13:54:56.103Z,101485.34
2022-10-12T13:57:48.462Z,101484.00
2022-10-12T14:00:26.243Z,101479.69
2022-10-12T14:02:58.785Z,101482.06
2022-10-12T14:05:27.420Z,101485.59
2022-10-12T14:07:58.764Z,101483.91
2022-10-12T14:10:29.612Z,101477.97
2022-10-12T14:12:56.971Z,101464.47
2022-10-12T14:15:27.987Z,101462.50
2022-10-12T14:17:54.915Z,101456.31
2022-10-12T14:20:39.016Z,101453.03
2022-10-12T14:23:13.659Z,101461.56
2022-10-12T14:25:51.558Z,101447.13
2022-10-12T14:28:29.162Z,101441.75
2022-10-12T14:30:56.113Z,101446.66
2022-10-12T14:33:24.563Z,101436.66
2022-10-12T14:35:52.408Z,101441.06
2022-10-12T14:38:38.283Z,101435.75
2022-10-12T14:41:35.489Z,101439.34
2022-10-12T14:44:14.202Z,101435.72
2022-10-12T14:46:54.903Z,101443.59
2022-10-12T14:49:38.463Z,101441.53
2022-10-12T14:52:05.428Z,101444.31
2022-10-12T14:54:31.819Z,101437.75
2022-10-12T14:57:10.668Z,101432.03
2022-10-12T14:59:37.186Z,101431.53
2022-10-12T15:02:03.681Z,101414.41
2022-10-12T15:04:30.080Z,101419.72
2022-10-12T15:06:56.571Z,101427.56
2022-10-12T15:09:22.986Z,101413.72
2022-10-12T15:11:49.358Z,101414.06
2022-10-12T15:14:15.763Z,101408.88
2022-10-12T15:16:42.165Z,101401.41
2022-10-12T15:19:08.609Z,101397.22
2022-10-12T15:21:34.975Z,101397.81
2022-10-12T15:24:01.362Z,101393.34
2022-10-12T15:26:27.847Z,101388.59
2022-10-12T15:28:54.495Z,101389.91
2022-10-12T15:31:20.915Z,101391.00
2022-10-12T15:33:47.373Z,101388.69
2022-10-12T15:36:13.800Z,101386.06
2022-10-12T15:38:40.207Z,101381.81
2022-10-12T15:41:15.714Z,101378.97
2022-10-12T15:43:42.312Z,101368.78
2022-10-12T15:46:11.653Z,101370.94
2022-10-12T15:48:40.000Z,101371.47
2022-10-12T15:51:24.622Z,101371.34
2022-10-12T15:53:52.150Z,101367.66
2022-10-12T15:56:19.210Z,101363.53
2022-10-12T15:58:46.053Z,101377.56
2022-10-12T16:01:19.377Z,101376.88
2022-10-12T16:03:47.492Z,101368.00
2022-10-12T16:06:14.497Z,101374.41
2022-10-12T16:08:41.008Z,101378.28
2022-10-12T16:11:10.887Z,101379.66
2022-10-12T16:13:44.263Z,101377.09
2022-10-12T16:16:13.826Z,101378.44
2022-10-12T16:18:40.238Z,101373.69
2022-10-12T16:21:06.622Z,101379.00
2022-10-12T16:23:35.158Z,101381.03
2022-10-12T16:26:12.143Z,101383.03
2022-10-12T16:28:38.881Z,101376.56
2022-10-12T16:31:15.256Z,101370.19
2022-10-12T16:33:42.067Z,101374.34
2022-10-12T16:36:10.825Z,101376.31
2022-10-12T16:38:37.316Z,101378.75
2022-10-12T16:41:08.979Z,101386.53
2022-10-12T16:43:35.360Z,101398.41
2022-10-12T16:46:01.750Z,101395.03
2022-10-12T16:48:28.129Z,101393.56
2022-10-12T16:50:54.556Z,101403.81
2022-10-12T16:53:20.967Z,101416.72
2022-10-12T16:55:47.369Z,101412.31
2022-10-12T16:58:13.758Z,101408.75
2022-10-12T17:00:41.102Z,101412.81
2022-10-12T17:03:08.637Z,101418.53
2022-10-12T17:05:35.357Z,101415.69
2022-10-12T17:08:01.735Z,101406.66
2022-10-12T17:10:28.685Z,101411.94
2022-10-12T17:12:55.080Z,101418.25
2022-10-12T17:15:21.482Z,101417.69
2022-10-12T17:17:47.897Z,101420.63
2022-10-12T17:20:14.657Z,101412.81
2022-10-12T17:22:41.016Z,101407.16
2022-10-12T17:25:07.781Z,101407.03
2022-10-12T17:27:34.146Z,101403.91
2022-10-12T17:30:00.608Z,101415.91
2022-10-12T17:32:27.110Z,101412.56
2022-10-12T17:34:53.600Z,101406.25
2022-10-12T17:37:21.811Z,101410.59
2022-10-12T17:39:50.135Z,101426.38
2022-10-12T17:42:16.816Z,101437.72
2022-10-12T17:44:43.465Z,101441.41
2022-10-12T17:47:09.941Z,101444.44
2022-10-12T17:49:36.407Z,101447.88
2022-10-12T17:52:02.768Z,101462.41
2022-10-12T17:54:29.266Z,101471.34
2022-10-12T17:56:56.313Z,101468.63
2022-10-12T17:59:23.732Z,101461.19
2022-10-12T18:01:51.441Z,101446.53
2022-10-12T18:04:18.716Z,101422.97
2022-10-12T18:06:45.737Z,101398.53
2022-10-12T18:09:12.833Z,101387.06
2022-10-12T18:11:39.394Z,101423.03
2022-10-12T18:14:08.937Z,101445.16
2022-10-12T18:16:36.108Z,101457.28
2022-10-12T18:19:03.819Z,101457.28
2022-10-12T18:21:31.716Z,101480.50
2022-10-12T18:24:01.295Z,101486.47
2022-10-12T18:26:29.325Z,101481.16
2022-10-12T18:28:56.235Z,101465.84
2022-10-12T18:31:25.961Z,101469.47
2022-10-12T18:33:53.537Z,101481.78
2022-10-12T18:36:20.791Z,101482.22
2022-10-12T18:38:47.352Z,101492.03
2022-10-12T18:41:17.126Z,101503.53
2022-10-12T18:43:44.041Z,101504.41
2022-10-12T18:46:13.061Z,101505.22
2022-10-12T18:48:39.959Z,101513.50
2022-10-12T18:51:09.302Z,101504.81
2022-10-12T18:53:35.841Z,101500.34
2022-10-12T18:56:03.979Z,101513.72
2022-10-12T18:58:31.062Z,101489.50
2022-10-12T19:00:57.706Z,101469.94
2022-10-12T19:03:25.340Z,101468.66
2022-10-12T19:05:51.763Z,101478.69
2022-10-12T19:08:18.201Z,101465.06
2022-10-12T19:10:44.667Z,101458.25
2022-10-12T19:13:11.053Z,101471.22
2022-10-12T19:15:37.976Z,101477.19
2022-10-12T19:18:05.608Z,101460.38
2022-10-12T19:20:32.660Z,101463.16
2022-10-12T19:22:59.076Z,101464.84
2022-10-12T19:25:25.559Z,101465.09
2022-10-12T19:27:51.993Z,101461.66
2022-10-12T19:30:18.409Z,101452.31
2022-10-12T19:32:46.870Z,101448.91
2022-10-12T19:35:13.431Z,101445.31
2022-10-12T19:37:40.031Z,101463.81
2022-10-12T19:40:07.920Z,101467.44
2022-10-12T19:42:34.437Z,101468.69
2022-10-12T19:45:02.843Z,101472.06
2022-10-12T19:47:29.307Z,101466.97
2022-10-12T19:49:55.964Z,101470.19
2022-10-12T19:52:22.373Z,101477.84
2022-10-12T19:54:48.807Z,101482.09
2022-10-12T19:57:15.208Z,101475.47
2022-10-12T19:59:41.651Z,101478.25
2022-10-12T20:02:10.387Z,101478.00
2022-10-12T20:04:36.942Z,101474.41
2022-10-12T20:07:03.495Z,101473.97
2022-10-12T20:09:30.606Z,101476.28
2022-10-12T20:11:57.040Z,101480.94
2022-10-12T20:14:23.581Z,101472.44
2022-10-12T20:16:50.096Z,101477.75
2022-10-12T20:19:16.804Z,101479.22
2022-10-12T20:21:43.172Z,101472.41
2022-10-12T20:24:09.893Z,101473.03
2022-10-12T20:26:36.615Z,101473.22
2022-10-12T20:29:03.517Z,101476.63
2022-10-12T20:31:29.897Z,101477.44
2022-10-12T20:33:58.193Z,101472.09
2022-10-12T20:36:28.748Z,101475.47
2022-10-12T20:38:56.625Z,101468.66
2022-10-12T20:41:24.479Z,101472.88
2022-10-12T20:43:57.823Z,101476.91
2022-10-12T20:46:24.381Z,101474.97
2022-10-12T20:48:55.925Z,101483.88
2022-10-12T20:51:30.353Z,101480.44
2022-10-12T20:54:00.982Z,101480.22
2022-10-12T20:56:29.357Z,101480.63
2022-10-12T20:58:56.241Z,101472.75
2022-10-12T21:01:23.499Z,101469.16
2022-10-12T21:03:50.170Z,101468.69
2022-10-12T21:06:17.338Z,101482.25
2022-10-12T21:08:43.909Z,101489.00
2022-10-12T21:11:11.012Z,101487.34
2022-10-12T21:13:40.853Z,101489.66
2022-10-12T21:16:11.486Z,101491.09
2022-10-12T21:18:39.261Z,101488.09
2022-10-12T21:21:12.195Z,101487.03
2022-10-12T21:23:43.207Z,101491.69
2022-10-12T21:26:18.141Z,101487.63
2022-10-12T21:28:45.534Z,101487.19
2022-10-12T21:31:12.892Z,101498.63
2022-10-12T21:33:40.074Z,101498.63
2022-10-12T21:36:15.435Z,101496.28
2022-10-12T21:38:42.676Z,101495.59
2022-10-12T21:41:10.848Z,101495.59
2022-10-12T21:43:38.343Z,101501.53
2022-10-12T21:46:07.588Z,101495.38
2022-10-12T21:48:34.551Z,101493.66
2022-10-12T21:51:02.244Z,101496.41
2022-10-12T21:53:29.202Z,101498.94
2022-10-12T21:55:55.599Z,101491.94
2022-10-12T21:58:22.209Z,101493.84
2022-10-12T22:00:48.593Z,101487.88
2022-10-12T22:03:15.138Z,101492.53
2022-10-12T22:05:43.501Z,101498.28
2022-10-12T22:08:10.468Z,101493.81
2022-10-12T22:10:38.952Z,101494.84
2022-10-12T22:13:06.513Z,101492.09
2022-10-12T22:15:33.349Z,101494.22
2022-10-12T22:17:59.793Z,101490.41
2022-10-12T22:20:26.209Z,101493.34
2022-10-12T22:22:52.624Z,101500.13
2022-10-12T22:25:19.021Z,101498.22
2022-10-12T22:27:45.389Z,101494.81
2022-10-12T22:30:12.256Z,101497.09
2022-10-12T22:32:38.694Z,101495.41
2022-10-12T22:35:05.537Z,101499.22
2022-10-12T22:37:31.962Z,101494.75
2022-10-12T22:39:58.397Z,101493.72
2022-10-12T22:42:24.779Z,101493.03
2022-10-12T22:44:51.202Z,101484.38
2022-10-12T22:47:17.590Z,101474.22
2022-10-12T22:49:44.021Z,101489.03
2022-10-12T22:52:10.691Z,101483.75
2022-10-12T22:54:37.094Z,101483.75
2022-10-12T22:57:03.548Z,101484.78
2022-10-12T22:59:29.916Z,101482.25
2022-10-12T23:01:56.302Z,101478.81
2022-10-12T23:04:22.718Z,101480.09
2022-10-12T23:06:49.118Z,101475.63
2022-10-12T23:09:15.492Z,101479.63
2022-10-12T23:11:41.915Z,101474.97
2022-10-12T23:14:10.812Z,101476.03
2022-10-12T23:16:37.177Z,101478.09
2022-10-12T23:19:05.914Z,101478.31
2022-10-12T23:21:34.115Z,101475.97
2022-10-12T23:24:01.703Z,101474.44
2022-10-12T23:26:29.163Z,101471.91
2022-10-12T23:28:56.187Z,101476.56
2022-10-12T23:31:25.494Z,101473.13
2022-10-12T23:34:00.641Z,101481.78
2022-10-12T23:36:27.209Z,101480.47
2022-10-12T23:38:54.308Z,101478.97
2022-10-12T23:41:21.081Z,101474.72
2022-10-12T23:43:47.663Z,101475.97
2022-10-12T23:46:14.104Z,101480.16
2022-10-12T23:48:40.641Z,101478.00
2022-10-12T23:51:08.732Z,101480.06
2022-10-12T23:53:36.510Z,101478.09
2022-10-12T23:56:03.581Z,101469.56
2022-10-12T23:58:29.981Z,101476.13
